createdAt,value
2023-03-13T00:00:01.396Z,8.74
2023-03-13T00:05:01.014Z,9.33
2023-03-13T00:10:00.755Z,8.42
2023-03-13T00:15:01.587Z,9.52
2023-03-13T00:20:01.345Z,8.97
2023-03-13T00:25:01.391Z,9.30
2023-03-13T00:30:01.846Z,8.36
2023-03-13T00:35:00.834Z,9.05
2023-03-13T00:40:01.533Z,8.44
2023-03-13T00:45:02.387Z,7.92
2023-03-13T00:50:01.534Z,9.08
2023-03-13T00:55:01.156Z,8.30
2023-03-13T01:00:01.488Z,9.01
2023-03-13T01:05:00.786Z,8.21
2023-03-13T01:10:02.703Z,8.51
2023-03-13T01:15:02.378Z,8.23
2023-03-13T01:20:01.098Z,8.86
2023-03-13T01:25:02.448Z,8.34
2023-03-13T01:30:01.868Z,9.16
2023-03-13T01:35:02.492Z,8.28
2023-03-13T01:40:02.098Z,8.61
2023-03-13T01:45:01.923Z,8.46
2023-03-13T01:50:02.607Z,7.75
2023-03-13T01:55:00.994Z,7.76
2023-03-13T02:00:02.292Z,7.96
2023-03-13T02:05:00.848Z,7.27
2023-03-13T02:10:01.414Z,7.73
2023-03-13T02:15:01.817Z,6.72
2023-03-13T02:20:00.777Z,7.17
2023-03-13T02:25:00.827Z,7.36
2023-03-13T02:30:02.105Z,7.50
2023-03-13T02:35:00.723Z,5.42
2023-03-13T02:40:01.150Z,5.93
2023-03-13T02:45:01.446Z,6.29
2023-03-13T02:50:00.718Z,6.28
2023-03-13T02:55:01.913Z,6.55
2023-03-13T03:00:01.602Z,6.07
2023-03-13T03:05:00.943Z,6.00
2023-03-13T03:10:02.099Z,5.35
2023-03-13T03:15:02.429Z,5.09
2023-03-13T03:20:02.562Z,5.27
2023-03-13T03:25:01.700Z,4.15
2023-03-13T03:30:02.698Z,5.05
2023-03-13T03:35:01.169Z,4.92
2023-03-13T03:40:01.922Z,4.73
2023-03-13T03:45:02.134Z,4.56
2023-03-13T03:50:00.715Z,4.74
2023-03-13T03:55:00.810Z,4.56
2023-03-13T04:00:01.301Z,4.06
2023-03-13T04:05:01.040Z,4.01
2023-03-13T04:10:01.806Z,4.37
2023-03-13T04:15:02.231Z,4.28
2023-03-13T04:20:00.730Z,4.67
2023-03-13T04:25:00.864Z,3.23
2023-03-13T04:30:01.356Z,4.35
2023-03-13T04:35:00.750Z,4.29
2023-03-13T04:40:02.171Z,4.24
2023-03-13T04:45:00.791Z,4.69
2023-03-13T04:50:01.149Z,4.72
2023-03-13T04:55:01.799Z,4.43
2023-03-13T05:00:03.076Z,4.54
2023-03-13T05:05:02.576Z,4.29
2023-03-13T05:10:01.880Z,4.92
2023-03-13T05:15:02.317Z,4.67
2023-03-13T05:20:02.418Z,4.71
2023-03-13T05:25:02.727Z,4.12
2023-03-13T05:30:02.823Z,4.79
2023-03-13T05:35:00.841Z,4.53
2023-03-13T05:40:03.013Z,4.04
2023-03-13T05:45:02.745Z,4.01
2023-03-13T05:50:00.839Z,3.78
2023-03-13T05:55:00.763Z,3.96
2023-03-13T06:00:04.741Z,4.48
2023-03-13T06:05:00.797Z,3.99
2023-03-13T06:10:00.971Z,4.07
2023-03-13T06:15:00.777Z,4.25
2023-03-13T06:20:02.750Z,5.10
2023-03-13T06:25:00.966Z,4.99
2023-03-13T06:30:00.854Z,5.58
2023-03-13T06:35:03.248Z,4.60
2023-03-13T06:40:00.720Z,4.31
2023-03-13T06:45:02.693Z,5.44
2023-03-13T06:50:03.409Z,3.58
2023-03-13T06:55:01.491Z,4.16
2023-03-13T07:00:03.751Z,3.99
2023-03-13T07:05:02.282Z,3.93
2023-03-13T07:10:01.444Z,4.40
2023-03-13T07:15:01.296Z,4.12
2023-03-13T07:20:03.826Z,3.73
2023-03-13T07:25:00.973Z,3.41
2023-03-13T07:30:01.681Z,3.18
2023-03-13T07:35:00.771Z,3.35
2023-03-13T07:40:01.254Z,3.67
2023-03-13T07:45:00.767Z,3.26
2023-03-13T07:50:02.395Z,3.51
2023-03-13T07:55:00.721Z,3.88
2023-03-13T08:00:01.334Z,3.46
2023-03-13T08:05:01.151Z,3.31
2023-03-13T08:10:01.163Z,2.50
2023-03-13T08:15:03.027Z,2.73
2023-03-13T08:20:02.428Z,2.35
2023-03-13T08:25:02.024Z,2.11
2023-03-13T08:30:03.686Z,2.36
2023-03-13T08:35:01.261Z,2.08
2023-03-13T08:40:02.718Z,1.74
2023-03-13T08:45:01.878Z,1.93
2023-03-13T08:50:01.458Z,2.52
2023-03-13T08:55:00.809Z,2.17
2023-03-13T09:00:01.341Z,1.51
2023-03-13T09:05:01.012Z,1.95
2023-03-13T09:10:01.711Z,2.03
2023-03-13T09:15:01.483Z,1.93
2023-03-13T09:20:01.872Z,1.62
2023-03-13T09:25:01.312Z,2.15
2023-03-13T09:30:02.785Z,2.17
2023-03-13T09:35:00.708Z,1.76
2023-03-13T09:40:01.943Z,1.65
2023-03-13T09:45:01.099Z,1.74
2023-03-13T09:50:02.657Z,1.86
2023-03-13T09:55:01.577Z,1.81
2023-03-13T10:00:02.265Z,1.67
2023-03-13T10:05:00.724Z,1.72
2023-03-13T10:10:03.037Z,1.69
2023-03-13T10:15:01.616Z,1.81
2023-03-13T10:20:02.447Z,1.77
2023-03-13T10:25:01.812Z,1.51
2023-03-13T10:30:02.920Z,1.85
2023-03-13T10:35:00.736Z,1.43
2023-03-13T10:40:02.073Z,1.51
2023-03-13T10:45:01.397Z,1.71
2023-03-13T10:50:02.486Z,2.89
2023-03-13T10:55:02.372Z,2.02
2023-03-13T11:00:03.747Z,1.79
2023-03-13T11:05:01.240Z,1.99
2023-03-13T11:10:00.966Z,2.60
2023-03-13T11:15:01.826Z,1.65
2023-03-13T11:20:01.418Z,1.73
2023-03-13T11:25:01.442Z,3.08
2023-03-13T11:30:03.335Z,1.88
2023-03-13T11:35:01.491Z,1.80
2023-03-13T11:40:02.198Z,1.50
2023-03-13T11:45:01.980Z,1.69
2023-03-13T11:50:02.051Z,1.78
2023-03-13T11:55:00.739Z,2.06
2023-03-13T12:00:01.076Z,2.08
2023-03-13T12:05:02.140Z,2.10
2023-03-13T12:10:00.968Z,1.40
2023-03-13T12:15:02.395Z,2.43
2023-03-13T12:20:02.305Z,2.21
2023-03-13T12:25:00.768Z,2.14
2023-03-13T12:30:01.931Z,2.10
2023-03-13T12:35:02.826Z,1.97
2023-03-13T12:40:01.434Z,1.57
2023-03-13T12:45:01.680Z,1.94
2023-03-13T12:50:02.448Z,1.90
2023-03-13T12:55:00.737Z,1.97
2023-03-13T13:00:03.613Z,3.67
2023-03-13T13:05:01.956Z,1.91
2023-03-13T13:10:01.237Z,2.54
2023-03-13T13:15:01.075Z,2.08
2023-03-13T13:20:01.586Z,2.12
2023-03-13T13:25:01.792Z,2.25
2023-03-13T13:30:01.219Z,2.02
2023-03-13T13:35:01.951Z,1.96
2023-03-13T13:40:02.948Z,1.79
2023-03-13T13:45:02.642Z,1.96
2023-03-13T13:50:02.817Z,2.12
2023-03-13T13:55:01.648Z,2.52
2023-03-13T14:00:01.217Z,2.21
2023-03-13T14:05:02.661Z,2.48
2023-03-13T14:10:01.359Z,3.20
2023-03-13T14:15:02.235Z,7.30
2023-03-13T14:20:02.699Z,3.63
2023-03-13T14:25:01.501Z,8.00
2023-03-13T14:30:02.710Z,7.38
2023-03-13T14:35:02.274Z,15.41
2023-03-13T14:40:02.596Z,4.33
2023-03-13T14:45:01.717Z,7.14
2023-03-13T14:50:00.865Z,4.26
2023-03-13T14:55:02.625Z,4.88
2023-03-13T15:00:03.002Z,3.61
2023-03-13T15:05:00.868Z,3.44
2023-03-13T15:10:02.900Z,11.73
2023-03-13T15:15:03.278Z,3.79
2023-03-13T15:20:02.901Z,2.95
2023-03-13T15:25:06.952Z,3.29
2023-03-13T15:30:04.858Z,3.86
2023-03-13T15:35:02.191Z,9.55
2023-03-13T15:40:01.929Z,3.39
2023-03-13T15:45:02.628Z,3.08
2023-03-13T15:50:01.597Z,9.58
2023-03-13T15:55:00.874Z,4.97
2023-03-13T16:00:03.019Z,3.13
2023-03-13T16:05:02.598Z,7.45
2023-03-13T16:10:01.597Z,3.92
2023-03-13T16:15:02.837Z,10.30
2023-03-13T16:20:01.709Z,13.70
2023-03-13T16:25:02.049Z,9.58
2023-03-13T16:30:04.208Z,7.52
2023-03-13T16:35:02.320Z,8.96
2023-03-13T16:40:02.082Z,6.25
2023-03-13T16:45:02.048Z,8.82
2023-03-13T16:50:03.013Z,5.44
2023-03-13T16:55:01.764Z,6.39
2023-03-13T17:00:03.020Z,6.79
2023-03-13T17:05:02.532Z,9.82
2023-03-13T17:10:00.848Z,10.15
2023-03-13T17:15:01.753Z,5.12
2023-03-13T17:20:03.259Z,13.17
2023-03-13T17:25:01.931Z,29.42
2023-03-13T17:30:03.185Z,11.55
2023-03-13T17:35:01.115Z,18.23
2023-03-13T17:40:00.913Z,6.40
2023-03-13T17:45:02.368Z,11.36
2023-03-13T17:50:01.471Z,9.69
2023-03-13T17:55:03.032Z,13.83
2023-03-13T18:00:03.026Z,7.23
2023-03-13T18:05:02.208Z,12.86
2023-03-13T18:10:03.179Z,37.91
2023-03-13T18:15:01.897Z,7.55
2023-03-13T18:20:00.704Z,7.83
2023-03-13T18:25:01.966Z,17.69
2023-03-13T18:30:02.492Z,9.03
2023-03-13T18:35:02.660Z,10.91
2023-03-13T18:40:01.355Z,15.24
2023-03-13T18:45:02.344Z,7.96
2023-03-13T18:50:01.882Z,21.13
2023-03-13T18:55:01.187Z,9.86
2023-03-13T19:00:01.590Z,10.21
2023-03-13T19:05:01.016Z,10.03
2023-03-13T19:10:00.869Z,11.25
2023-03-13T19:15:00.918Z,9.63
2023-03-13T19:20:01.204Z,8.35
2023-03-13T19:25:00.741Z,8.59
2023-03-13T19:30:02.749Z,9.30
2023-03-13T19:35:02.932Z,8.15
2023-03-13T19:40:01.148Z,12.00
2023-03-13T19:45:01.039Z,10.64
2023-03-13T19:50:00.810Z,24.36
2023-03-13T19:55:03.135Z,8.18
2023-03-13T20:00:03.058Z,7.59
2023-03-13T20:05:00.855Z,8.59
2023-03-13T20:10:00.830Z,7.97
2023-03-13T20:15:02.017Z,8.02
2023-03-13T20:20:00.741Z,5.59
2023-03-13T20:25:00.963Z,6.81
2023-03-13T20:30:01.340Z,10.09
2023-03-13T20:35:01.427Z,8.76
2023-03-13T20:40:00.789Z,7.22
2023-03-13T20:45:01.054Z,16.99
2023-03-13T20:50:01.028Z,7.67
2023-03-13T20:55:01.283Z,6.23
2023-03-13T21:00:00.769Z,6.01
2023-03-13T21:05:00.941Z,4.87
2023-03-13T21:10:01.236Z,5.05
2023-03-13T21:15:00.832Z,7.19
2023-03-13T21:20:00.987Z,6.38
2023-03-13T21:25:01.475Z,4.98
2023-03-13T21:30:03.362Z,13.42
2023-03-13T21:35:00.767Z,7.73
2023-03-13T21:40:01.837Z,11.79
2023-03-13T21:45:02.480Z,9.98
2023-03-13T21:50:00.742Z,13.99
2023-03-13T21:55:02.274Z,19.93
2023-03-13T22:00:01.453Z,15.74
2023-03-13T22:05:01.658Z,13.86
2023-03-13T22:10:01.896Z,13.93
2023-03-13T22:15:01.352Z,20.50
2023-03-13T22:20:01.800Z,13.27
2023-03-13T22:25:02.701Z,18.42
2023-03-13T22:30:02.383Z,12.47
2023-03-13T22:35:02.049Z,11.16
2023-03-13T22:40:04.490Z,10.65
2023-03-13T22:45:00.937Z,11.39
2023-03-13T22:50:01.752Z,11.57
2023-03-13T22:55:00.767Z,13.42
2023-03-13T23:05:00.793Z,11.96
2023-03-13T23:10:00.498Z,12.98
2023-03-13T23:15:00.665Z,12.90
2023-03-13T23:20:00.673Z,19.94
2023-03-13T23:25:00.584Z,11.43
2023-03-13T23:30:02.224Z,10.55
2023-03-13T23:35:01.897Z,7.03
2023-03-13T23:40:01.340Z,7.33
2023-03-13T23:45:02.388Z,8.58
2023-03-13T23:50:00.607Z,8.77
2023-03-13T23:55:00.576Z,6.58
